默认 日期 大小 文件数 浏览量 最新下载 xml
tooth磁力链接相关资源由用户搜索指令自动获取,结果来源于网络,本站不存储任何资料,亦不承担任何责任,请于24小时内删除,搜索到2009个磁力,用时2ms。
    {"Sweet.Tooth.S02e04.2020.1080P-Dual-Lat.mkv": 975145861, "Sweet.Tooth.S02e04.2020.1080P-Dual-Lat.srt": 49552, "Descargar Películas, Series y Animes Gratis....url": 50}
创建时间: 2024-06-09 18:17:38 大小:930.02 MB 文件数量:3 热度:4 最近下载:2025-02-05 08:47:02
    {"band logo.png": 825217, "front art.jpg": 392198, "2020 - Double Negative (EP)": {"cover.jpg": 285574, "03 - Get Well.mp3": 4857433, "01 - Tombstone.mp3": 4913859, "04 - Man in Ruin.mp3": 5340179, "02 - Double Negative.mp3": 5291073}, "2021 - Basic ...
创建时间: 2021-12-19 06:43:30 大小:38.36 MB 文件数量:11 热度:4 最近下载:2025-02-05 08:09:07
    {"cover.jpg": 54956, "foo_dr.txt": 1504, "02 - Firewater.flac": 36167855, "07 - Quicksand.flac": 28643151, "Folder.auCDtect.txt": 5298, "01 - Heavy Rain.flac": 44002066, "08 - Vagabond Shoes.flac": 33253622, "09 - Dead Man's Hand.flac": 27060292, "11 - ...
创建时间: 2022-05-22 11:53:53 大小:381.11 MB 文件数量:15 热度:3 最近下载:2025-02-05 07:17:01
    {"Tooth Fairy Cover.jpg": 1339533, "Downmixing Tutorial.txt": 2313, "ResourceRG_NFO_please_read.txt": 21408, "Tooth Fairy 720p BRrip H264 Bezauk.mp4": 2147388491}
创建时间: 2022-11-21 15:41:48 大小:2 GB 文件数量:4 热度:5 最近下载:2025-02-05 05:44:03
    ... ": 877471744, "Sweet.Tooth.S01E02.avi": 821972992, "Sweet.Tooth.S01E03.avi": 662540288 ... , "Sweet.Tooth.S01E04.avi": 604637184 ... , "Sweet.Tooth.S01E05.avi": 564860928 ...
创建时间: 2023-05-17 17:49:58 大小:10.15 GB 文件数量:24 热度:2 最近下载:2025-02-05 00:04:03
    {"Cursed.mp3": 15172549, "Orphan.mp3": 13189332, "Rotten.mp3": 13106783, "Lullaby.mp3": 14935359, "Os Iusti.mp3": 2649450, "Shores Of Rubicon.mp3": 18614462, "Through The Storm.mp3": 15212275, "12 Dez.23 Patife® 32.jpg": 96828, "The Realm Of Ignorance.mp3 ...
创建时间: 2024-02-04 16:58:14 大小:108.9 MB 文件数量:10 热度:6 最近下载:2025-02-04 19:37:02
    ... 29742, "31_Vietnamese.srt": 35060}, "Sweet.Tooth.S01E02.WEBRip.x265-ION265": {"13_hrv ... 30623, "31_Vietnamese.srt": 35891}, "Sweet.Tooth.S01E03.WEBRip.x265-ION265": {"13_hrv ... 30209, "31_Vietnamese.srt": 35676}, "Sweet.Tooth.S01E04.WEBRip.x265-ION265": {"13_hrv ...
创建时间: 2021-10-14 11:24:35 大小:2.35 GB 文件数量:265 热度:9 最近下载:2025-02-04 13:54:04
    {"Distributed by Mininova.txt": 291, "_Action Game Sweet Tooth Sammy Free Game For Pc Need for Speed styled.zip": 5903026}
创建时间: 2022-08-01 19:25:12 大小:5.63 MB 文件数量:2 热度:6 最近下载:2025-02-04 08:44:01
    ... AC3-K83.mkv": 1970340909, "Sweet.Tooth.2021.S01E02.MULTi.1080p.NF ... AC3-K83.mkv": 2585669620, "Sweet.Tooth.2021.S01E03.MULTi.1080p.NF ... -K83.mkv": 1418578072, "Sweet.Tooth.2021.S01E04.MULTi.1080p.NF ... -K83.mkv": 1487649334, "Sweet.Tooth.2021.S01E05.MULTi.1080p.NF ...
创建时间: 2023-05-08 20:58:26 大小:13.67 GB 文件数量:8 热度:2 最近下载:2025-02-04 04:56:03
    ... .STUDIO.mkv": 2471256179, "Sweet.Tooth.S02E02.WEBRip.1080p.rus.5 ... .STUDIO.mkv": 2371104746, "Sweet.Tooth.S02E03.WEBRip.1080p.rus.5 ... .STUDIO.mkv": 2662592719, "Sweet.Tooth.S02E04.WEBRip.1080p.rus.5 ... .STUDIO.mkv": 2350790920, "Sweet.Tooth.S02E05.WEBRip.1080p.rus.5 ...
创建时间: 2023-05-21 16:41:54 大小:18.74 GB 文件数量:8 热度:2 最近下载:2025-02-04 04:48:02
    ... .mkv": 166900286, "Sweet.tooth.s03e04.beyond.the.sea.480p ... .mkv": 175778131, "Sweet.tooth.s03e05.the.tail-tale.heart ... DownnloadHub.mkv": 158776639, "Sweet.tooth.s03e06.here.there.be.monsters ... .mkv": 168518214, "Sweet.Tooth.S03E01.The.Beginning.Is.Also ...
创建时间: 2024-06-09 14:09:47 大小:1.28 GB 文件数量:8 热度:2 最近下载:2025-02-04 03:07:03
    ... Screen0001.png": 521332, "Sweet.Tooth.S03E03.480p.x264-RUBiK.Screen0002 ... .png": 571310, "Sweet.Tooth.S03E03.480p.x264-RUBiK.Screen0003 ... .png": 318186, "Sweet.Tooth.S03E03.480p.x264-RUBiK.Screen0004 ... .png": 274986}, "Sweet.Tooth.S03E03.480p.x264-RUBiK.mkv ...
创建时间: 2024-06-26 16:18:45 大小:371.45 MB 文件数量:6 热度:2 最近下载:2025-02-04 02:59:05
    {"ReadMe.url": 1112, "Tooth and Tail v1.1.2.6.exe": 5107042, "Tooth and Tail v1.1.2.6.nfo": 776}
创建时间: 2024-07-10 19:52:26 大小:4.87 MB 文件数量:3 热度:5 最近下载:2025-02-04 02:55:02
    {"Screens": {"screen0001.png": 292200, "screen0002.png": 251690, "screen0003.png": 200042}, "Sweet.Tooth.S03E01.XviD-AFG.avi": 380313834, "Sweet.Tooth.S03E01.XviD-AFG.nfo": 1088, "Torrent Downloaded From www.SceneTime.com .txt": 85}
创建时间: 2024-10-23 18:48:38 大小:363.41 MB 文件数量:6 热度:2 最近下载:2025-02-04 02:06:01
    {"ReadMe.url": 1112, "Tooth and Tail v1.1.2.6.exe": 5107042, "Tooth and Tail v1.1.2.6.nfo": 776}
创建时间: 2024-12-02 15:57:19 大小:4.87 MB 文件数量:3 热度:2 最近下载:2025-02-04 01:37:02
    {"Sweet.Tooth.s01e01.WEBRip.XviD.Rus.BaibaKo.tv.avi": 695271486, "Sweet.Tooth.s01e02.WEBRip.XviD.Rus.BaibaKo.tv.avi": 637099022, "Sweet.Tooth.s01e03.WEBRip.XviD.Rus.BaibaKo.tv.avi": 548615838}
创建时间: 2021-06-13 19:21:19 大小:1.75 GB 文件数量:3 热度:3 最近下载:2025-02-03 20:09:01
    {"Tooth Fairy 2010 Spanish DVDSCR.avi": 732294360}
创建时间: 2022-12-18 23:40:54 大小:698.37 MB 文件数量:1 热度:2 最近下载:2025-02-03 17:04:01
    {"Sweet.Tooth.S02e03.2023.1080P-Dual-Lat.mp4": 1133229767, "Descargar Películas, Series y Animes Gratis....url": 50, "Sweet.Tooth.S02E03.2023.1080P-Dual-Lat_track4_[spa].srt": 40219}
创建时间: 2023-05-12 07:08:51 大小:1.06 GB 文件数量:3 热度:2 最近下载:2025-02-03 16:38:03
    {"AtomoHD cash.url": 121, "ATOMOHD CANAL TELEGRAM.url": 114, "Sweet Tooth El Nino Ciervo - Temporada 2 [HDTV 720p][Cap.208][AC3 5.1 Castellano][www.AtomoHD.cash].mkv": 1218481232}
创建时间: 2023-05-20 21:22:58 大小:1.13 GB 文件数量:3 热度:2 最近下载:2025-02-03 16:36:08
    {"Sweet.Tooth.S01e08.2023.720P-Dual-Lat.mp4": 665662579, "Descargar Películas, Series y Animes Gratis....url": 50, "sweet.tooth.S01E08.2023.720P-Dual-Lat_track5_[spa].srt": 35320}
创建时间: 2023-05-22 09:24:58 大小:634.86 MB 文件数量:3 热度:2 最近下载:2025-02-03 16:35:02